createdAt,value
2022-09-22T00:01:04.289Z,97.91
2022-09-22T00:03:06.084Z,97.87
2022-09-22T00:05:07.202Z,97.88
2022-09-22T00:07:08.402Z,97.85
2022-09-22T00:09:09.787Z,97.83
2022-09-22T00:11:11.709Z,97.78
2022-09-22T00:13:13.493Z,97.81
2022-09-22T00:15:14.476Z,97.86
2022-09-22T00:17:16.439Z,97.83
2022-09-22T00:19:18.249Z,97.85
2022-09-22T00:21:20.227Z,97.81
2022-09-22T00:23:21.439Z,97.82
2022-09-22T00:25:22.637Z,97.82
2022-09-22T00:27:24.527Z,97.81
2022-09-22T00:29:25.803Z,97.72
2022-09-22T00:33:29.224Z,97.79
2022-09-22T00:35:30.266Z,97.8
2022-09-22T00:37:31.710Z,97.86
2022-09-22T00:39:33.035Z,97.9
2022-09-22T00:43:36.269Z,97.92
2022-09-22T00:45:37.914Z,97.94
2022-09-22T00:47:39.415Z,97.99
2022-09-22T00:49:41.153Z,98.01
2022-09-22T00:51:42.267Z,97.98
2022-09-22T00:53:43.591Z,98.04
2022-09-22T00:55:44.887Z,98.06
2022-09-22T00:59:48.414Z,98.17
2022-09-22T01:01:50.295Z,98.18
2022-09-22T01:03:51.644Z,98.13
2022-09-22T01:05:53.476Z,98.1
2022-09-22T01:07:55.131Z,98.12
2022-09-22T01:09:56.957Z,98.18
2022-09-22T01:11:58.563Z,98.21
2022-09-22T01:13:59.887Z,98.26
2022-09-22T01:16:01.348Z,98.28
2022-09-22T01:18:02.585Z,98.24
2022-09-22T01:20:04.161Z,98.27
2022-09-22T01:22:05.667Z,98.29
2022-09-22T01:24:07.123Z,98.31
2022-09-22T01:26:08.751Z,98.3
2022-09-22T01:28:10.292Z,98.24
2022-09-22T01:32:12.880Z,98.22
2022-09-22T01:34:14.080Z,98.27
2022-09-22T01:36:15.956Z,98.31
2022-09-22T01:38:17.870Z,98.34
2022-09-22T01:40:19.730Z,98.29
2022-09-22T01:42:20.866Z,98.3
2022-09-22T01:44:21.893Z,98.28
2022-09-22T01:46:23.092Z,98.3
2022-09-22T01:48:24.646Z,98.28
2022-09-22T01:50:25.999Z,98.26
2022-09-22T01:52:27.344Z,98.24
2022-09-22T01:54:28.759Z,98.23
2022-09-22T01:56:30.357Z,98.22
2022-09-22T01:58:31.555Z,98.23
2022-09-22T02:00:32.666Z,98.2
2022-09-22T02:02:34.776Z,98.23
2022-09-22T02:04:35.683Z,98.26
2022-09-22T02:06:37.646Z,98.3
2022-09-22T02:08:39.025Z,98.32
2022-09-22T02:10:40.369Z,98.39
2022-09-22T02:14:43.565Z,98.51
2022-09-22T02:16:45.417Z,98.52
2022-09-22T02:18:46.454Z,98.53
2022-09-22T02:20:47.941Z,98.53
2022-09-22T02:22:49.692Z,98.52
2022-09-22T02:24:51.148Z,98.49
2022-09-22T02:26:52.462Z,98.49
2022-09-22T02:28:53.495Z,98.51
2022-09-22T02:31:17.849Z,98.56
2022-09-22T02:32:56.771Z,98.61
2022-09-22T02:34:58.431Z,98.62
2022-09-22T02:36:59.809Z,98.6
2022-09-22T02:39:01.301Z,98.58
2022-09-22T02:41:02.568Z,98.55
2022-09-22T02:43:04.158Z,98.54
2022-09-22T02:47:07.875Z,98.55
2022-09-22T02:49:09.622Z,98.57
2022-09-22T02:51:11.187Z,98.59
2022-09-22T02:53:12.271Z,98.55
2022-09-22T02:57:15.045Z,98.57
2022-09-22T02:59:17.041Z,98.59
2022-09-22T03:01:18.811Z,98.62
2022-09-22T03:03:20.162Z,98.63
2022-09-22T03:05:21.954Z,98.63
2022-09-22T03:07:23.676Z,98.63
2022-09-22T03:09:25.486Z,98.62
2022-09-22T03:11:27.181Z,98.62
2022-09-22T03:13:29.023Z,98.6
2022-09-22T03:15:30.311Z,98.6
2022-09-22T03:17:32.241Z,98.59
2022-09-22T03:19:34.122Z,98.59
2022-09-22T03:24:21.180Z,98.52
2022-09-22T03:26:23.042Z,98.52
2022-09-22T03:28:24.804Z,98.48
2022-09-22T03:30:26.688Z,98.47
2022-09-22T03:34:29.679Z,98.51
2022-09-22T03:36:31.663Z,98.5
2022-09-22T03:38:33.179Z,98.48
2022-09-22T03:40:34.462Z,98.52
2022-09-22T03:42:35.764Z,98.54
2022-09-22T03:44:37.180Z,98.54
2022-09-22T03:46:38.947Z,98.51
2022-09-22T03:48:44.294Z,98.52
2022-09-22T03:50:41.234Z,98.52
2022-09-22T03:52:42.667Z,98.54
2022-09-22T03:54:44.275Z,98.51
2022-09-22T03:56:46.146Z,98.5
2022-09-22T03:58:47.331Z,98.5
2022-09-22T04:00:48.421Z,98.51
2022-09-22T04:02:50.021Z,98.54
2022-09-22T04:04:51.949Z,98.55
2022-09-22T04:06:53.042Z,98.59
2022-09-22T04:08:54.844Z,98.6
2022-09-22T04:10:55.892Z,98.6
2022-09-22T04:12:57.245Z,98.63
2022-09-22T04:14:59.234Z,98.67
2022-09-22T04:17:00.832Z,98.69
2022-09-22T04:19:02.302Z,98.72
2022-09-22T04:23:05.414Z,98.78
2022-09-22T04:25:07.302Z,98.78
2022-09-22T04:27:19.383Z,98.8
2022-09-22T04:29:10.368Z,98.83
2022-09-22T04:33:12.938Z,98.87
2022-09-22T04:35:14.771Z,98.87
2022-09-22T04:37:16.454Z,98.88
2022-09-22T04:39:20.338Z,98.87
2022-09-22T04:41:19.660Z,98.87
2022-09-22T04:43:20.864Z,98.89
2022-09-22T04:45:22.808Z,98.89
2022-09-22T04:47:24.845Z,98.87
2022-09-22T04:49:26.555Z,98.84
2022-09-22T04:51:27.778Z,98.84
2022-09-22T04:53:29.708Z,98.84
2022-09-22T04:55:30.911Z,98.85
2022-09-22T04:57:32.234Z,98.84
2022-09-22T04:59:33.666Z,98.85
2022-09-22T05:01:35.133Z,98.84
2022-09-22T05:05:38.799Z,98.86
2022-09-22T05:07:40.408Z,98.83
2022-09-22T05:09:41.552Z,98.87
2022-09-22T05:11:43.471Z,98.86
2022-09-22T05:15:46.042Z,98.82
2022-09-22T05:17:47.901Z,98.82
2022-09-22T05:19:49.291Z,98.83
2022-09-22T05:21:50.343Z,98.84
2022-09-22T05:23:51.626Z,98.84
2022-09-22T05:25:53.138Z,98.85
2022-09-22T05:27:54.855Z,98.86
2022-09-22T05:29:56.555Z,98.87
2022-09-22T05:31:58.618Z,98.89
2022-09-22T05:34:00.258Z,98.9
2022-09-22T05:36:02.015Z,98.91
2022-09-22T05:38:03.682Z,98.95
2022-09-22T05:40:05.665Z,98.94
2022-09-22T05:42:10.272Z,98.95
2022-09-22T05:44:08.865Z,98.94
2022-09-22T05:46:10.266Z,98.93
2022-09-22T05:48:11.983Z,98.93
2022-09-22T05:50:13.584Z,98.91
2022-09-22T05:52:15.127Z,98.95
2022-09-22T05:54:19.009Z,98.97
2022-09-22T05:58:19.177Z,98.94
2022-09-22T06:00:20.314Z,98.95
2022-09-22T06:02:25.890Z,98.96
2022-09-22T06:04:22.973Z,98.98
2022-09-22T06:06:24.604Z,98.97
2022-09-22T06:08:26.208Z,98.99
2022-09-22T06:10:28.195Z,98.99
2022-09-22T06:12:29.089Z,98.97
2022-09-22T06:14:30.134Z,98.98
2022-09-22T06:16:31.448Z,98.94
2022-09-22T06:18:33.016Z,98.92
2022-09-22T06:20:35.008Z,98.94
2022-09-22T06:22:36.968Z,98.97
2022-09-22T06:24:38.021Z,98.95
2022-09-22T06:26:39.815Z,98.95
2022-09-22T06:28:41.052Z,98.92
2022-09-22T06:30:42.742Z,98.98
2022-09-22T06:32:43.931Z,98.96
2022-09-22T06:34:45.832Z,98.97
2022-09-22T06:36:47.578Z,98.94
2022-09-22T06:40:51.002Z,99.07
2022-09-22T06:42:52.281Z,99.06
2022-09-22T06:44:53.863Z,99.02
2022-09-22T06:46:55.226Z,98.94
2022-09-22T06:48:56.573Z,98.94
2022-09-22T06:50:58.233Z,98.96
2022-09-22T06:52:59.456Z,98.97
2022-09-22T06:55:00.800Z,98.97
2022-09-22T06:57:02.723Z,98.93
2022-09-22T06:59:10.100Z,98.89
2022-09-22T07:01:09.602Z,98.96
2022-09-22T07:03:07.363Z,98.99
2022-09-22T07:05:08.805Z,98.95
2022-09-22T07:07:09.911Z,98.97
2022-09-22T07:09:11.419Z,98.97
2022-09-22T07:11:12.679Z,98.98
2022-09-22T07:13:14.460Z,98.94
2022-09-22T07:15:15.440Z,98.94
2022-09-22T07:19:17.978Z,98.89
2022-09-22T07:23:20.457Z,98.83
2022-09-22T07:25:22.399Z,98.84
2022-09-22T07:27:24.289Z,98.99
2022-09-22T07:29:25.235Z,99.15
2022-09-22T07:31:28.767Z,99.17
2022-09-22T07:33:27.370Z,99.06
2022-09-22T07:35:28.292Z,99.01
2022-09-22T07:37:29.454Z,98.88
2022-09-22T07:39:31.216Z,98.54
2022-09-22T07:41:32.650Z,98.7
2022-09-22T07:43:33.925Z,98.72
2022-09-22T07:45:35.785Z,98.72
2022-09-22T07:47:37.409Z,98.61
2022-09-22T07:49:38.359Z,98.72
2022-09-22T07:51:40.147Z,98.77
2022-09-22T07:55:43.141Z,98.57
2022-09-22T07:57:44.769Z,98.56
2022-09-22T07:59:46.669Z,98.51
2022-09-22T08:01:48.371Z,98.16
2022-09-22T08:03:51.099Z,98.26
2022-09-22T08:05:52.508Z,98.24
2022-09-22T08:07:53.774Z,98.04
2022-09-22T08:09:54.661Z,97.56
2022-09-22T08:11:55.982Z,97.11
2022-09-22T08:13:57.487Z,96.87
2022-09-22T08:15:58.466Z,97.46
2022-09-22T08:17:59.898Z,96.52
2022-09-22T08:20:01.208Z,95.48
2022-09-22T08:22:02.649Z,94.2
2022-09-22T08:24:03.950Z,91.71
2022-09-22T08:26:05.790Z,91.36
2022-09-22T08:28:07.269Z,88.97
2022-09-22T08:30:08.999Z,88.58
2022-09-22T08:32:09.828Z,88.56
2022-09-22T08:34:11.249Z,87.49
2022-09-22T08:36:12.432Z,88.14
2022-09-22T08:38:13.707Z,84.27
2022-09-22T08:40:15.635Z,83.34
2022-09-22T08:42:16.924Z,81.08
2022-09-22T08:44:18.402Z,79.82
2022-09-22T08:46:19.730Z,80.39
2022-09-22T08:48:21.416Z,77.81
2022-09-22T08:50:23.167Z,77.71
2022-09-22T08:52:25.451Z,81.26
2022-09-22T08:54:26.882Z,79.61
2022-09-22T08:56:28.309Z,76.94
2022-09-22T08:58:29.934Z,77.37
2022-09-22T09:00:31.355Z,77.44
2022-09-22T09:02:32.409Z,77.05
2022-09-22T09:04:34.161Z,74.92
2022-09-22T09:06:35.450Z,75.98
2022-09-22T09:08:37.212Z,77.9
2022-09-22T09:10:38.323Z,73.96
2022-09-22T09:12:39.400Z,76.45
2022-09-22T09:14:40.774Z,75.25
2022-09-22T09:16:42.266Z,72.67
2022-09-22T09:18:43.207Z,71.86
2022-09-22T09:20:44.839Z,72.27
2022-09-22T09:22:48.405Z,71.82
2022-09-22T09:26:49.491Z,71.5
2022-09-22T09:28:50.901Z,69.25
2022-09-22T09:30:51.925Z,70.01
2022-09-22T09:32:53.004Z,70.41
2022-09-22T09:36:55.333Z,68.23
2022-09-22T09:38:56.919Z,68.04
2022-09-22T09:40:57.824Z,68.14
2022-09-22T09:43:00.473Z,68.78
2022-09-22T09:47:01.366Z,64
2022-09-22T09:49:02.411Z,66.04
2022-09-22T09:51:04.111Z,64.17
2022-09-22T09:53:08.366Z,62.99
2022-09-22T09:55:06.982Z,63
2022-09-22T09:57:08.626Z,62.53
2022-09-22T09:59:10.294Z,62.88
2022-09-22T10:01:11.189Z,62.34
2022-09-22T10:03:12.897Z,61.33
2022-09-22T10:05:13.883Z,63.26
2022-09-22T10:05:57.609Z,61.74
2022-09-22T10:07:58.688Z,60.36
2022-09-22T10:10:00.179Z,59.18
2022-09-22T10:12:01.677Z,61.69
2022-09-22T10:14:02.981Z,62.48
2022-09-22T10:16:04.031Z,67.74
2022-09-22T10:20:06.180Z,61.37
2022-09-22T10:24:09.445Z,62.14
2022-09-22T10:26:10.908Z,62.38
2022-09-22T10:28:12.668Z,63.9
2022-09-22T10:30:13.771Z,61.43
2022-09-22T10:32:15.165Z,61.89
2022-09-22T10:34:16.261Z,62.42
2022-09-22T10:36:17.123Z,58.91
2022-09-22T10:38:18.920Z,58.73
2022-09-22T10:40:19.837Z,60.82
2022-09-22T10:42:21.551Z,57.84
2022-09-22T10:44:40.299Z,59.05
2022-09-22T10:46:24.632Z,57.11
2022-09-22T10:48:25.843Z,57.76
2022-09-22T10:50:27.031Z,60.61
2022-09-22T10:54:29.716Z,54.97
2022-09-22T10:56:30.675Z,55.02
2022-09-22T10:58:31.783Z,55.29
2022-09-22T11:00:34.065Z,59.45
2022-09-22T11:02:34.366Z,53.96
2022-09-22T11:04:36.441Z,57.39
2022-09-22T11:06:37.496Z,57.8
2022-09-22T11:08:38.579Z,58.87
2022-09-22T11:10:40.032Z,58.23
2022-09-22T11:12:41.672Z,58.77
2022-09-22T11:16:45.107Z,56.19
2022-09-22T11:18:46.246Z,58.77
2022-09-22T11:22:49.034Z,56.56
2022-09-22T11:24:50.819Z,52.92
2022-09-22T11:26:51.856Z,55.51
2022-09-22T11:28:57.024Z,56.71
2022-09-22T11:30:54.633Z,53.67
2022-09-22T11:32:56.284Z,52.94
2022-09-22T11:34:57.994Z,54.92
2022-09-22T11:36:59.269Z,55.37
2022-09-22T11:39:00.419Z,56.18
2022-09-22T11:41:02.087Z,55.95
2022-09-22T11:43:04.249Z,57.09
2022-09-22T11:45:04.800Z,55.84
2022-09-22T11:47:05.865Z,53.73
2022-09-22T11:49:06.950Z,53.34
2022-09-22T11:51:08.390Z,55.78
2022-09-22T11:55:10.735Z,57.47
2022-09-22T11:57:11.922Z,55.41
2022-09-22T12:01:14.874Z,55.65
2022-09-22T12:05:17.181Z,52.62
2022-09-22T12:07:18.743Z,50.37
2022-09-22T12:09:19.647Z,52.55
2022-09-22T12:11:20.840Z,55.1
2022-09-22T12:13:22.472Z,55.51
2022-09-22T12:15:24.199Z,56.62
2022-09-22T12:17:25.216Z,53.16
2022-09-22T12:19:26.904Z,49.99
2022-09-22T12:21:28.607Z,51.57
2022-09-22T12:23:30.077Z,50.14
2022-09-22T12:27:33.471Z,49.67
2022-09-22T12:29:34.790Z,48.44
2022-09-22T12:31:35.907Z,47.5
2022-09-22T12:33:36.840Z,47
2022-09-22T12:35:38.631Z,48.78
2022-09-22T12:37:39.812Z,46.71
2022-09-22T12:39:41.110Z,49.96
2022-09-22T12:41:42.213Z,47.17
2022-09-22T12:43:43.468Z,49.69
2022-09-22T12:47:46.155Z,49.62
2022-09-22T12:49:47.055Z,47.72
2022-09-22T12:51:48.268Z,52.02
2022-09-22T12:53:49.605Z,48.18
2022-09-22T12:55:51.394Z,48.46
2022-09-22T12:57:52.744Z,46.71
2022-09-22T12:59:53.961Z,47.46
2022-09-22T13:01:55.448Z,47.34
2022-09-22T13:03:56.638Z,46.77
2022-09-22T13:07:59.108Z,46.61
2022-09-22T13:10:00.821Z,49.5
2022-09-22T13:12:02.313Z,47.83
2022-09-22T13:14:03.165Z,48.78
2022-09-22T13:16:04.421Z,48.61
2022-09-22T13:18:05.586Z,47.85
2022-09-22T13:20:07.101Z,47.06
2022-09-22T13:22:08.553Z,49.23
2022-09-22T13:24:12.128Z,48.77
2022-09-22T13:26:11.261Z,49.71
2022-09-22T13:28:12.797Z,49.25
2022-09-22T13:30:13.905Z,48.66
2022-09-22T13:32:18.295Z,46.86
2022-09-22T13:36:18.098Z,45.78
2022-09-22T13:38:19.162Z,45.99
2022-09-22T13:40:20.619Z,46.64
2022-09-22T13:42:21.796Z,47.48
2022-09-22T13:46:24.225Z,46.99
2022-09-22T13:48:25.505Z,45.66
2022-09-22T13:50:27.295Z,46.16
2022-09-22T13:52:28.858Z,45.58
2022-09-22T13:54:30.629Z,46.28
2022-09-22T13:56:32.083Z,45.23
2022-09-22T13:58:33.681Z,47.47
2022-09-22T14:00:45.019Z,48.01
2022-09-22T14:02:36.349Z,46.16
2022-09-22T14:04:38.075Z,44.6
2022-09-22T14:06:39.802Z,46.72
2022-09-22T14:08:41.605Z,45.98
2022-09-22T14:10:42.665Z,46.33
2022-09-22T14:12:44.390Z,48.3
2022-09-22T14:14:46.184Z,47.29
2022-09-22T14:18:48.454Z,46.01
2022-09-22T14:20:49.726Z,44.66
2022-09-22T14:22:50.562Z,45.78
2022-09-22T14:24:51.889Z,43.17
2022-09-22T14:28:54.192Z,45.88
2022-09-22T14:30:55.095Z,43.72
2022-09-22T14:32:56.845Z,44.08
2022-09-22T14:34:58.595Z,47.06
2022-09-22T14:37:00.106Z,45.47
2022-09-22T14:39:09.276Z,44.01
2022-09-22T14:41:02.715Z,46.32
2022-09-22T14:43:03.699Z,45.53
2022-09-22T14:45:05.100Z,45.19
2022-09-22T14:47:06.150Z,46.6
2022-09-22T14:49:07.162Z,46.47
2022-09-22T14:51:08.233Z,44.51
2022-09-22T14:53:09.935Z,46.31
2022-09-22T14:55:11.661Z,43.9
2022-09-22T14:57:13.058Z,45.77
2022-09-22T15:01:16.387Z,46.43
2022-09-22T15:03:17.432Z,44.93
2022-09-22T15:05:18.810Z,45.96
2022-09-22T15:07:20.410Z,44.82
2022-09-22T15:11:23.212Z,43.95
2022-09-22T15:13:24.470Z,45.75
2022-09-22T15:15:25.716Z,43.45
2022-09-22T15:17:27.023Z,45.08
2022-09-22T15:19:28.528Z,43.43
2022-09-22T15:21:30.319Z,45.77
2022-09-22T15:23:31.616Z,43.79
2022-09-22T15:25:32.433Z,41.37
2022-09-22T15:27:33.474Z,43.36
2022-09-22T15:29:34.670Z,43.72
2022-09-22T15:31:36.309Z,44.09
2022-09-22T15:33:37.492Z,44.08
2022-09-22T15:35:38.882Z,44.12
2022-09-22T15:37:40.353Z,45.68
2022-09-22T15:39:42.206Z,45.69
2022-09-22T15:41:44.121Z,45.77
2022-09-22T15:43:45.545Z,45.88
2022-09-22T16:22:10.748Z,52.03
2022-09-22T16:24:12.142Z,51.58
2022-09-22T16:26:13.833Z,53.4
2022-09-22T16:28:15.369Z,50.5
2022-09-22T16:30:17.120Z,49.88
2022-09-22T16:32:18.396Z,49.81
2022-09-22T16:34:20.190Z,49.85
2022-09-22T16:36:21.613Z,51.38
2022-09-22T16:38:22.647Z,51.32
2022-09-22T16:40:23.916Z,51.44
2022-09-22T16:42:24.941Z,50.71
2022-09-22T16:44:26.718Z,50.19
2022-09-22T16:46:28.091Z,51.12
2022-09-22T16:48:29.013Z,51.02
2022-09-22T16:51:23.451Z,51.57
2022-09-22T16:53:24.714Z,53.58
2022-09-22T16:55:25.970Z,53.91
2022-09-22T16:57:27.203Z,54.44
2022-09-22T16:59:28.486Z,54.84
2022-09-22T17:01:29.920Z,57.47
2022-09-22T17:03:31.367Z,58.07
2022-09-22T17:05:32.507Z,59.58
2022-09-22T17:07:33.871Z,58.96
2022-09-22T17:09:35.160Z,58.97
2022-09-22T17:11:37.016Z,58.38
2022-09-22T17:13:38.760Z,58.5
2022-09-22T17:15:39.704Z,59.22
2022-09-22T17:17:41.161Z,59.77
2022-09-22T17:19:42.085Z,60.54
2022-09-22T17:21:43.660Z,61.38
2022-09-22T17:23:44.802Z,62.22
2022-09-22T17:25:45.716Z,63.43
2022-09-22T17:29:48.037Z,64.51
2022-09-22T17:31:49.686Z,65.29
2022-09-22T17:33:52.377Z,66.05
2022-09-22T17:35:52.820Z,66.5
2022-09-22T17:37:54.593Z,65.6
2022-09-22T17:39:56.248Z,66.72
2022-09-22T17:41:57.485Z,67.06
2022-09-22T17:43:59.364Z,68.86
2022-09-22T17:46:00.758Z,69.23
2022-09-22T17:48:02.446Z,68.18
2022-09-22T17:50:03.479Z,68.75
2022-09-22T17:52:04.562Z,69.06
2022-09-22T17:54:06.349Z,69.06
2022-09-22T17:56:10.411Z,69.83
2022-09-22T17:58:09.442Z,70.54
2022-09-22T18:00:10.448Z,71.17
2022-09-22T18:02:11.767Z,72.28
2022-09-22T18:04:12.715Z,72.73
2022-09-22T18:06:14.402Z,73.53
2022-09-22T18:08:16.144Z,73.9
2022-09-22T18:12:18.388Z,76.17
2022-09-22T18:14:19.927Z,77.16
2022-09-22T18:16:21.822Z,78.18
2022-09-22T18:18:23.142Z,78.63
2022-09-22T18:20:25.102Z,79.37
2022-09-22T18:22:26.294Z,79.77
2022-09-22T18:24:27.792Z,80.04
2022-09-22T18:26:29.352Z,80.25
2022-09-22T18:28:30.766Z,80.4
2022-09-22T18:30:32.149Z,80.54
2022-09-22T18:32:33.858Z,80.89
2022-09-22T18:34:35.021Z,80.13
2022-09-22T18:36:36.692Z,80.1
2022-09-22T18:38:38.190Z,80.51
2022-09-22T18:40:39.311Z,80.73
2022-09-22T18:44:42.352Z,80.39
2022-09-22T18:46:43.778Z,79.49
2022-09-22T18:48:45.086Z,79.37
2022-09-22T18:50:46.097Z,79.43
2022-09-22T18:52:47.364Z,78.78
2022-09-22T18:54:48.397Z,78.37
2022-09-22T18:56:50.134Z,78.21
2022-09-22T18:58:51.729Z,78.63
2022-09-22T19:00:52.803Z,79.33
2022-09-22T19:02:54.942Z,79.5
2022-09-22T19:04:56.607Z,80.18
2022-09-22T19:06:57.800Z,80.45
2022-09-22T19:08:58.892Z,81.22
2022-09-22T19:11:00.363Z,81.95
2022-09-22T19:13:02.061Z,81.43
2022-09-22T19:15:03.955Z,81.87
2022-09-22T19:17:04.939Z,82.62
2022-09-22T19:19:06.130Z,82.37
2022-09-22T19:21:09.483Z,82.84
2022-09-22T19:23:09.373Z,83.17
2022-09-22T19:25:10.827Z,83.42
2022-09-22T19:27:11.953Z,83.56
2022-09-22T19:29:12.897Z,83.59
2022-09-22T19:31:14.295Z,84.13
2022-09-22T19:33:15.861Z,83.95
2022-09-22T19:35:17.241Z,84.08
2022-09-22T19:37:18.767Z,84.36
2022-09-22T19:39:19.875Z,84.31
2022-09-22T19:43:22.951Z,84.36
2022-09-22T19:45:24.825Z,84.15
2022-09-22T19:47:26.733Z,84.92
2022-09-22T19:49:27.760Z,84.92
2022-09-22T19:53:30.587Z,85.88
2022-09-22T19:55:32.386Z,86.24
2022-09-22T19:57:33.477Z,86
2022-09-22T19:59:34.770Z,85.77
2022-09-22T20:01:36.258Z,85.78
2022-09-22T20:03:37.157Z,86.52
2022-09-22T20:05:38.901Z,86.74
2022-09-22T20:07:39.918Z,86.88
2022-09-22T20:09:41.789Z,87.28
2022-09-22T20:11:43.646Z,87.27
2022-09-22T20:13:45.459Z,87.5
2022-09-22T20:15:47.252Z,87.58
2022-09-22T20:17:48.416Z,87.35
2022-09-22T20:19:50.038Z,87.15
2022-09-22T20:21:51.933Z,87.4
2022-09-22T20:23:53.068Z,87.24
2022-09-22T20:25:54.876Z,87.44
2022-09-22T20:27:56.699Z,87.93
2022-09-22T20:29:58.342Z,88.72
2022-09-22T20:31:59.525Z,88.94
2022-09-22T20:34:00.901Z,88.56
2022-09-22T20:36:02.346Z,88.39
2022-09-22T20:38:03.623Z,88.6
2022-09-22T20:40:07.380Z,88.78
2022-09-22T20:42:06.658Z,88.77
2022-09-22T20:44:07.880Z,89.25
2022-09-22T20:46:09.340Z,89.75
2022-09-22T20:48:11.022Z,89.94
2022-09-22T20:50:12.520Z,90
2022-09-22T20:52:13.870Z,90.17
2022-09-22T20:54:15.784Z,90.28
2022-09-22T20:56:17.257Z,90.29
2022-09-22T21:00:20.053Z,90.71
2022-09-22T21:02:22.001Z,90.86
2022-09-22T21:04:23.361Z,91.12
2022-09-22T21:06:25.232Z,91.3
2022-09-22T21:08:27.105Z,91.48
2022-09-22T21:10:28.473Z,91.57
2022-09-22T21:12:31.377Z,91.42
2022-09-22T21:14:31.050Z,91.41
2022-09-22T21:16:32.542Z,91.5
2022-09-22T21:18:34.496Z,91.7
2022-09-22T21:20:35.495Z,92.1
2022-09-22T21:22:36.811Z,92.14
2022-09-22T21:26:39.065Z,92.1
2022-09-22T21:28:40.101Z,92.31
2022-09-22T21:30:42.003Z,92.5
2022-09-22T21:32:43.757Z,92.66
2022-09-22T21:34:45.575Z,92.63
2022-09-22T21:36:47.185Z,92.65
2022-09-22T21:38:48.707Z,92.63
2022-09-22T21:40:50.321Z,93.01
2022-09-22T21:42:52.036Z,93.19
2022-09-22T21:44:53.694Z,93.47
2022-09-22T21:46:54.865Z,93.71
2022-09-22T21:50:58.568Z,94.01
2022-09-22T21:53:00.506Z,94.13
2022-09-22T21:55:02.215Z,94.11
2022-09-22T21:57:03.863Z,94.2
2022-09-22T21:59:05.435Z,94.12
2022-09-22T22:01:06.717Z,94.05
2022-09-22T22:03:07.748Z,93.94
2022-09-22T22:05:09.006Z,93.91
2022-09-22T22:07:10.529Z,93.98
2022-09-22T22:09:11.775Z,93.92
2022-09-22T22:11:13.650Z,93.94
2022-09-22T22:13:15.137Z,94.72
2022-09-22T22:15:16.739Z,95.03
2022-09-22T22:17:17.780Z,95.06
2022-09-22T22:19:19.481Z,95.11
2022-09-22T22:21:21.144Z,95.01
2022-09-22T22:23:22.268Z,95.01
2022-09-22T22:25:23.636Z,95.28
2022-09-22T22:27:24.960Z,95.38
2022-09-22T22:29:26.894Z,95.35
2022-09-22T22:33:29.162Z,95.35
2022-09-22T22:35:30.776Z,95.41
2022-09-22T22:37:31.949Z,95.43
2022-09-22T22:39:33.107Z,95.64
2022-09-22T22:41:34.287Z,95.68
2022-09-22T22:43:35.568Z,95.67
2022-09-22T22:45:37.431Z,95.61
2022-09-22T22:49:40.255Z,95.86
2022-09-22T22:51:41.233Z,95.83
2022-09-22T22:53:42.737Z,95.81
2022-09-22T22:55:44.308Z,95.77
2022-09-22T22:57:46.098Z,95.7
2022-09-22T22:59:47.917Z,96.15
2022-09-22T23:01:49.945Z,96.43
2022-09-22T23:03:51.611Z,96.44
2022-09-22T23:05:53.230Z,96.4
2022-09-22T23:07:54.222Z,96.46
2022-09-22T23:09:56.059Z,96.45
2022-09-22T23:11:57.270Z,96.68
2022-09-22T23:13:59.006Z,96.64
2022-09-22T23:16:00.427Z,96.59
2022-09-22T23:18:01.408Z,96.59
2022-09-22T23:20:02.701Z,96.58
2022-09-22T23:22:04.239Z,96.6
2022-09-22T23:24:05.664Z,96.73
2022-09-22T23:26:06.986Z,96.77
2022-09-22T23:28:08.438Z,96.78
2022-09-22T23:30:10.297Z,97.01
2022-09-22T23:32:12.189Z,96.97
2022-09-22T23:34:14.079Z,97.05
2022-09-22T23:36:15.425Z,97.01
2022-09-22T23:39:01.031Z,97
2022-09-22T23:41:02.407Z,96.99
2022-09-22T23:43:04.137Z,96.92
2022-09-22T23:45:05.400Z,97.09
2022-09-22T23:47:06.784Z,97.04
2022-09-22T23:49:08.074Z,97.01
2022-09-22T23:51:09.153Z,96.98
2022-09-22T23:53:10.290Z,96.96
2022-09-22T23:55:12.248Z,96.95
2022-09-22T23:59:14.739Z,97.23
